createdAt,value
2022-10-11T00:02:29.013Z,16.20
2022-10-11T00:07:32.004Z,16.10
2022-10-11T00:12:36.649Z,16.00
2022-10-11T00:17:39.562Z,16.00
2022-10-11T00:22:43.179Z,15.90
2022-10-11T00:27:47.435Z,15.80
2022-10-11T00:32:50.746Z,15.80
2022-10-11T00:37:53.662Z,15.70
2022-10-11T00:42:57.948Z,15.60
2022-10-11T00:48:04.613Z,15.60
2022-10-11T00:53:11.307Z,15.50
2022-10-11T00:58:16.399Z,15.50
2022-10-11T01:03:22.351Z,15.40
2022-10-11T01:08:25.818Z,15.40
2022-10-11T01:13:42.366Z,15.30
2022-10-11T01:18:50.686Z,15.30
2022-10-11T01:24:14.893Z,15.30
2022-10-11T01:29:26.020Z,15.20
2022-10-11T01:34:36.926Z,15.20
2022-10-11T01:39:44.980Z,15.10
2022-10-11T01:44:50.103Z,15.00
2022-10-11T01:49:59.930Z,14.90
2022-10-11T01:55:21.615Z,14.80
2022-10-11T02:00:26.986Z,14.60
2022-10-11T02:05:40.151Z,14.40
2022-10-11T02:10:49.222Z,14.20
2022-10-11T02:15:54.951Z,14.10
2022-10-11T02:21:01.714Z,13.90
2022-10-11T02:26:07.655Z,13.80
2022-10-11T02:31:12.039Z,13.60
2022-10-11T02:36:21.897Z,13.40
2022-10-11T02:41:30.514Z,13.30
2022-10-11T02:46:34.935Z,13.20
2022-10-11T02:51:43.667Z,13.10
2022-10-11T02:56:46.560Z,13.00
2022-10-11T03:01:49.555Z,12.90
2022-10-11T03:06:53.896Z,12.80
2022-10-11T03:11:56.883Z,12.70
2022-10-11T03:17:17.345Z,12.60
2022-10-11T03:22:24.895Z,12.50
2022-10-11T03:27:27.819Z,12.40
2022-10-11T03:32:31.376Z,12.30
2022-10-11T03:37:35.795Z,12.20
2022-10-11T03:42:39.120Z,12.00
2022-10-11T03:47:42.170Z,11.90
2022-10-11T03:52:46.443Z,11.80
2022-10-11T03:57:49.345Z,11.70
2022-10-11T04:02:52.269Z,11.60
2022-10-11T04:07:56.579Z,11.50
2022-10-11T04:12:59.696Z,11.40
2022-10-11T04:18:02.999Z,11.30
2022-10-11T04:23:07.319Z,11.30
2022-10-11T04:28:10.404Z,11.20
2022-10-11T04:33:13.364Z,11.10
2022-10-11T04:38:17.667Z,11.00
2022-10-11T04:43:20.728Z,10.90
2022-10-11T04:48:23.639Z,10.80
2022-10-11T04:53:27.959Z,10.70
2022-10-11T04:58:31.723Z,10.70
2022-10-11T05:03:35.170Z,10.60
2022-10-11T05:08:39.506Z,10.50
2022-10-11T05:13:42.843Z,10.50
2022-10-11T05:18:45.817Z,10.40
2022-10-11T05:23:51.514Z,10.30
2022-10-11T05:28:54.654Z,10.30
2022-10-11T05:33:57.660Z,10.20
2022-10-11T05:39:01.996Z,10.20
2022-10-11T05:44:05.131Z,10.10
2022-10-11T05:50:13.733Z,10.10
2022-10-11T05:55:18.713Z,10.00
2022-10-11T06:00:21.899Z,9.90
2022-10-11T06:05:28.344Z,9.80
2022-10-11T06:10:32.930Z,9.80
2022-10-11T06:15:35.934Z,9.70
2022-10-11T06:20:38.910Z,9.60
2022-10-11T06:25:43.204Z,9.60
2022-10-11T06:30:46.123Z,9.50
2022-10-11T06:35:49.151Z,9.50
2022-10-11T06:40:53.507Z,9.50
2022-10-11T06:46:00.496Z,9.50
2022-10-11T06:51:03.457Z,9.50
2022-10-11T06:56:10.068Z,9.40
2022-10-11T07:01:18.671Z,9.40
2022-10-11T07:06:23.368Z,9.50
2022-10-11T07:11:28.820Z,9.50
2022-10-11T07:16:31.873Z,9.60
2022-10-11T07:21:36.223Z,9.60
2022-10-11T07:26:40.830Z,9.80
2022-10-11T07:31:44.153Z,9.90
2022-10-11T07:36:47.748Z,10.10
2022-10-11T07:41:52.042Z,10.30
2022-10-11T07:46:54.944Z,10.50
2022-10-11T07:51:58.058Z,10.70
2022-10-11T07:57:02.406Z,10.90
2022-10-11T08:02:05.323Z,11.10
2022-10-11T08:07:08.250Z,11.30
2022-10-11T08:12:13.016Z,11.40
2022-10-11T08:17:16.007Z,11.70
2022-10-11T08:22:19.040Z,11.90
2022-10-11T08:27:23.640Z,12.10
2022-10-11T08:32:26.588Z,12.40
2022-10-11T08:37:29.553Z,12.60
2022-10-11T08:42:39.807Z,12.80
2022-10-11T08:47:45.763Z,13.00
2022-10-11T08:52:53.557Z,13.20
2022-10-11T08:57:58.347Z,13.40
2022-10-11T09:03:09.259Z,13.60
2022-10-11T09:08:22.773Z,13.70
2022-10-11T09:13:43.673Z,13.80
2022-10-11T09:19:03.913Z,14.00
2022-10-11T09:24:32.703Z,14.20
2022-10-11T09:29:54.779Z,14.30
2022-10-11T09:35:09.472Z,14.50
2022-10-11T09:40:30.912Z,14.60
2022-10-11T09:45:35.208Z,14.80
2022-10-11T09:50:40.316Z,15.00
2022-10-11T09:55:51.300Z,15.20
2022-10-11T10:01:07.423Z,15.30
2022-10-11T10:06:16.096Z,15.60
2022-10-11T10:11:20.254Z,15.70
2022-10-11T10:16:27.608Z,15.90
2022-10-11T10:21:33.719Z,16.10
2022-10-11T10:26:36.725Z,16.30
2022-10-11T10:37:26.023Z,16.60
2022-10-11T10:42:29.712Z,16.70
2022-10-11T10:48:00.426Z,16.90
2022-10-11T10:53:16.811Z,17.10
2022-10-11T10:58:43.103Z,17.20
2022-10-11T11:03:53.596Z,17.30
2022-10-11T11:09:06.721Z,17.50
2022-10-11T11:14:24.160Z,17.60
2022-10-11T11:19:42.120Z,17.70
2022-10-11T11:24:52.464Z,17.90
2022-10-11T11:30:01.452Z,18.00
2022-10-11T11:35:13.405Z,18.10
2022-10-11T11:40:18.868Z,18.20
2022-10-11T11:45:25.559Z,18.20
2022-10-11T11:57:40.711Z,18.40
2022-10-11T12:02:49.013Z,18.50
2022-10-11T12:07:56.326Z,18.50
2022-10-11T12:13:21.084Z,18.60
2022-10-11T12:18:24.385Z,18.70
2022-10-11T12:23:44.493Z,18.90
2022-10-11T12:29:03.695Z,19.00
2022-10-11T12:34:36.014Z,19.10
2022-10-11T12:39:48.354Z,19.20
2022-10-11T12:45:28.916Z,19.30
2022-10-11T12:50:45.331Z,19.50
2022-10-11T12:55:57.223Z,19.60
2022-10-11T13:01:19.475Z,19.80
2022-10-11T13:06:25.781Z,19.80
2022-10-11T13:11:33.183Z,19.90
2022-10-11T13:16:51.253Z,20.10
2022-10-11T13:21:57.935Z,20.20
2022-10-11T13:27:00.933Z,20.30
2022-10-11T13:32:06.943Z,20.40
2022-10-11T13:37:17.325Z,20.50
2022-10-11T13:42:24.467Z,20.60
2022-10-11T13:47:30.007Z,20.80
2022-10-11T13:52:35.051Z,20.90
2022-10-11T13:57:42.371Z,21.00
2022-10-11T14:02:49.095Z,21.00
2022-10-11T14:07:53.603Z,21.20
2022-10-11T14:13:03.268Z,21.20
2022-10-11T14:18:35.441Z,21.30
2022-10-11T14:23:39.719Z,21.40
2022-10-11T14:28:42.705Z,21.40
2022-10-11T14:33:45.718Z,21.40
2022-10-11T14:38:50.049Z,21.30
2022-10-11T14:43:56.249Z,21.30
2022-10-11T14:48:59.200Z,21.20
2022-10-11T14:54:03.519Z,21.10
2022-10-11T14:59:06.953Z,20.90
2022-10-11T15:04:10.463Z,20.70
2022-10-11T15:09:16.161Z,20.50
2022-10-11T15:14:19.395Z,20.30
2022-10-11T15:19:25.161Z,20.10
2022-10-11T15:24:29.445Z,19.90
2022-10-11T15:29:32.347Z,19.70
2022-10-11T15:34:35.256Z,19.60
2022-10-11T15:39:39.631Z,19.40
2022-10-11T15:44:42.535Z,19.30
2022-10-11T15:49:45.548Z,19.10
2022-10-11T15:54:49.881Z,19.00
2022-10-11T15:59:52.794Z,18.80
2022-10-11T16:04:55.737Z,18.70
2022-10-11T16:10:00.021Z,18.60
2022-10-11T16:15:02.992Z,18.50
2022-10-11T16:20:07.399Z,18.50
2022-10-11T16:25:11.764Z,18.40
2022-10-11T16:30:16.572Z,18.40
2022-10-11T16:35:19.883Z,18.30
2022-10-11T16:40:25.978Z,18.20
2022-10-11T16:45:28.918Z,18.00
2022-10-11T16:50:36.882Z,17.80
2022-10-11T16:55:43.542Z,17.60
2022-10-11T17:00:46.515Z,17.40
2022-10-11T17:05:49.582Z,17.20
2022-10-11T17:10:57.811Z,17.00
2022-10-11T17:16:01.151Z,16.80
2022-10-11T17:21:05.576Z,16.60
2022-10-11T17:26:13.275Z,16.30
2022-10-11T17:31:16.965Z,16.00
2022-10-11T17:36:23.693Z,15.90
2022-10-11T17:41:31.877Z,15.70
2022-10-11T17:46:35.576Z,15.50
2022-10-11T17:51:39.072Z,15.40
2022-10-11T17:56:43.856Z,15.20
2022-10-11T18:01:46.899Z,15.10
2022-10-11T18:06:50.344Z,15.00
2022-10-11T18:11:55.829Z,14.80
2022-10-11T18:16:58.874Z,14.80
2022-10-11T18:22:06.657Z,14.70
2022-10-11T18:27:11.515Z,14.60
2022-10-11T18:32:18.017Z,14.40
2022-10-11T18:37:21.040Z,14.30
2022-10-11T18:42:25.463Z,14.10
2022-10-11T18:47:28.471Z,13.90
2022-10-11T18:52:31.476Z,13.70
2022-10-11T18:57:35.930Z,13.50
2022-10-11T19:02:38.944Z,13.40
2022-10-11T19:07:43.091Z,13.20
2022-10-11T19:12:47.440Z,13.10
2022-10-11T19:17:50.389Z,13.00
2022-10-11T19:22:53.348Z,12.80
2022-10-11T19:27:57.721Z,12.70
2022-10-11T19:33:00.780Z,12.60
2022-10-11T19:38:04.210Z,12.50
2022-10-11T19:43:08.601Z,12.40
2022-10-11T19:48:11.601Z,12.20
2022-10-11T19:53:14.586Z,12.10
2022-10-11T19:58:19.523Z,12.00
2022-10-11T20:03:22.498Z,11.90
2022-10-11T20:08:25.541Z,11.80
2022-10-11T20:13:34.671Z,11.80
2022-10-11T20:18:39.202Z,11.70
2022-10-11T20:23:43.874Z,11.60
2022-10-11T20:28:51.211Z,11.50
2022-10-11T20:34:01.250Z,11.40
2022-10-11T20:39:06.345Z,11.40
2022-10-11T20:44:13.058Z,11.20
2022-10-11T20:49:16.303Z,11.20
2022-10-11T20:54:19.483Z,11.10
2022-10-11T20:59:23.845Z,11.10
2022-10-11T21:04:26.827Z,11.10
2022-10-11T21:09:29.789Z,11.00
2022-10-11T21:14:34.114Z,10.90
2022-10-11T21:19:37.153Z,10.80
2022-10-11T21:24:40.171Z,10.80
2022-10-11T21:29:44.535Z,10.70
2022-10-11T21:34:47.716Z,10.70
2022-10-11T21:39:50.772Z,10.60
2022-10-11T21:44:55.138Z,10.60
2022-10-11T21:49:58.157Z,10.50
2022-10-11T21:55:01.133Z,10.40
2022-10-11T22:00:07.312Z,10.40
2022-10-11T22:05:16.607Z,10.30
2022-10-11T22:10:19.606Z,10.20
2022-10-11T22:15:23.985Z,10.10
2022-10-11T22:20:27.216Z,10.00
2022-10-11T22:25:30.603Z,9.90
2022-10-11T22:30:35.034Z,9.90
2022-10-11T22:35:38.230Z,9.90
2022-10-11T22:40:41.239Z,9.80
2022-10-11T22:45:45.769Z,9.70
2022-10-11T22:50:48.779Z,9.60
2022-10-11T22:55:52.017Z,9.60
2022-10-11T23:00:56.411Z,9.50
2022-10-11T23:05:59.541Z,9.40
2022-10-11T23:11:06.674Z,9.40
2022-10-11T23:16:13.002Z,9.30
2022-10-11T23:21:16.048Z,9.30
2022-10-11T23:26:19.075Z,9.20
2022-10-11T23:31:23.670Z,9.20
2022-10-11T23:36:27.092Z,9.10
2022-10-11T23:41:31.072Z,9.10
2022-10-11T23:46:35.464Z,9.00
2022-10-11T23:51:38.608Z,9.00
2022-10-11T23:56:41.599Z,8.90
